Disclaimer

Please do not use the information listed here in-flight or in-navigation, as they are not provided to us by the airports but are provided by volunteers, so they might be outdated.

Search


Regions


Airport information page

Radio informations:
Tower (TWR) - 123.575 MHz
MUNCHEN RADAR - 132.3 MHz
MUNCHEN INFO - 125.8 MHz
INFO - 123.575 MHz

Airport informations:
Latitude: 50° 58' 54.54" N
Longitude: 012° 30' 22.90" E
Elevation: 640 feet - 195 meters
Operating hours: Remarks
Operating agency: Civil government, landing fees and diplomatic clearance may be required
Timezone: UTC+1(+2DT) - Last Sunday in March to last Sunday in October
Fuel: N/A

Runway information:
04/22 - 7333 x 148 feet< - >2235 x 45 meters

Recent METARs:
EDAC 160950Z 11004KT 070V150 CAVOK M01/M05 Q1014
EDAC 161020Z 12005KT 090V160 CAVOK M00/M06 Q1014
EDAC 161050Z 14006KT 110V180 CAVOK M00/M06 Q1014

Airport on the map: